createdAt,value
2023-08-15T00:01:16.097Z,7.90
2023-08-15T00:03:47.200Z,7.80
2023-08-15T00:06:15.227Z,7.80
2023-08-15T00:08:42.856Z,7.70
2023-08-15T00:11:10.508Z,7.40
2023-08-15T00:13:38.628Z,8.20
2023-08-15T00:16:06.222Z,7.60
2023-08-15T00:18:33.791Z,8.60
2023-08-15T00:21:01.358Z,8.00
2023-08-15T00:23:28.964Z,8.40
2023-08-15T00:25:56.577Z,8.10
2023-08-15T00:28:24.159Z,8.10
2023-08-15T00:30:51.863Z,7.60
2023-08-15T00:33:19.470Z,7.50
2023-08-15T00:35:47.083Z,7.90
2023-08-15T00:38:14.655Z,7.10
2023-08-15T00:40:42.351Z,7.60
2023-08-15T00:43:10.199Z,7.50
2023-08-15T00:45:40.053Z,7.50
2023-08-15T00:48:07.898Z,7.70
2023-08-15T00:50:35.480Z,7.50
2023-08-15T00:53:03.286Z,7.20
2023-08-15T00:55:33.314Z,7.00
2023-08-15T00:58:00.887Z,7.00
2023-08-15T01:00:28.546Z,7.00
2023-08-15T01:02:56.550Z,6.70
2023-08-15T01:05:24.140Z,7.20
2023-08-15T01:07:51.749Z,6.70
2023-08-15T01:10:19.367Z,7.20
2023-08-15T01:13:03.444Z,7.40
2023-08-15T01:15:31.800Z,7.30
2023-08-15T01:18:14.154Z,7.50
2023-08-15T01:20:41.797Z,7.60
2023-08-15T01:23:09.554Z,7.30
2023-08-15T01:25:44.071Z,6.80
2023-08-15T01:28:13.902Z,7.00
2023-08-15T01:31:04.984Z,7.00
2023-08-15T01:33:43.943Z,7.10
2023-08-15T01:36:19.450Z,7.20
2023-08-15T01:38:49.173Z,7.10
2023-08-15T01:41:20.573Z,7.00
2023-08-15T01:43:48.613Z,7.30
2023-08-15T01:46:16.319Z,6.60
2023-08-15T01:48:44.031Z,6.80
2023-08-15T01:51:11.659Z,7.00
2023-08-15T01:53:39.424Z,6.60
2023-08-15T01:56:07.535Z,7.20
2023-08-15T01:58:35.126Z,6.50
2023-08-15T02:01:03.766Z,6.90
2023-08-15T02:03:31.474Z,7.50
2023-08-15T02:05:59.087Z,7.20
2023-08-15T02:08:26.844Z,7.60
2023-08-15T02:10:54.942Z,6.70
2023-08-15T02:13:22.581Z,7.40
2023-08-15T02:15:50.932Z,7.10
2023-08-15T02:18:19.234Z,6.80
2023-08-15T02:20:46.861Z,6.90
2023-08-15T02:23:14.419Z,7.70
2023-08-15T02:25:43.503Z,7.90
2023-08-15T02:28:12.241Z,7.90
2023-08-15T02:30:39.965Z,8.30
2023-08-15T02:33:08.037Z,7.30
2023-08-15T02:35:38.149Z,7.70
2023-08-15T02:38:05.830Z,8.10
2023-08-15T02:40:33.402Z,8.60
2023-08-15T02:43:01.143Z,8.00
2023-08-15T02:45:28.708Z,7.50
2023-08-15T02:47:56.375Z,8.30
2023-08-15T02:50:24.276Z,8.70
2023-08-15T02:52:52.297Z,8.40
2023-08-15T02:55:19.973Z,8.60
2023-08-15T02:57:48.004Z,8.10
2023-08-15T03:00:15.776Z,9.40
2023-08-15T03:02:43.502Z,8.70
2023-08-15T03:05:11.322Z,8.30
2023-08-15T03:07:38.857Z,8.30
2023-08-15T03:10:06.813Z,8.30
2023-08-15T03:12:34.418Z,8.50
2023-08-15T03:15:02.108Z,8.80
2023-08-15T03:17:29.836Z,8.30
2023-08-15T03:19:58.618Z,8.90
2023-08-15T03:22:26.202Z,9.10
2023-08-15T03:24:53.940Z,9.40
2023-08-15T03:27:21.913Z,8.80
2023-08-15T03:29:49.690Z,7.90
2023-08-15T03:32:17.334Z,8.20
2023-08-15T03:34:45.170Z,7.40
2023-08-15T03:37:12.837Z,7.40
2023-08-15T03:39:40.416Z,7.40
2023-08-15T03:42:08.008Z,8.00
2023-08-15T03:44:36.168Z,7.60
2023-08-15T03:47:03.740Z,7.40
2023-08-15T03:49:33.044Z,7.20
2023-08-15T03:52:01.001Z,6.90
2023-08-15T03:54:29.363Z,8.80
2023-08-15T03:56:57.034Z,7.90
2023-08-15T03:59:24.652Z,7.90
2023-08-15T04:01:52.316Z,8.40
2023-08-15T04:04:20.204Z,8.60
2023-08-15T04:06:47.980Z,9.20
2023-08-15T04:09:15.573Z,9.00
2023-08-15T04:11:43.141Z,9.00
2023-08-15T04:14:10.773Z,8.70
2023-08-15T04:16:40.000Z,8.10
2023-08-15T04:19:07.726Z,8.30
2023-08-15T04:21:35.487Z,8.50
2023-08-15T04:24:04.272Z,8.70
2023-08-15T04:26:32.163Z,8.20
2023-08-15T04:28:59.766Z,8.80
2023-08-15T04:31:27.688Z,8.20
2023-08-15T04:33:55.342Z,9.10
2023-08-15T04:36:23.472Z,8.80
2023-08-15T04:38:51.175Z,8.70
2023-08-15T04:41:19.012Z,8.80
2023-08-15T04:43:46.703Z,8.60
2023-08-15T04:46:14.439Z,9.10
2023-08-15T04:48:42.144Z,9.30
2023-08-15T04:51:10.129Z,8.70
2023-08-15T04:53:37.754Z,9.00
2023-08-15T04:56:07.300Z,8.20
2023-08-15T04:58:34.929Z,8.40
2023-08-15T05:01:03.303Z,8.50
2023-08-15T05:03:31.018Z,8.80
2023-08-15T05:05:58.635Z,9.10
2023-08-15T05:08:26.288Z,8.90
2023-08-15T05:10:53.959Z,9.40
2023-08-15T05:13:21.807Z,9.40
2023-08-15T05:15:49.499Z,8.30
2023-08-15T05:18:17.267Z,8.60
2023-08-15T05:20:49.037Z,9.20
2023-08-15T05:23:17.358Z,9.30
2023-08-15T05:25:45.406Z,8.70
2023-08-15T05:28:13.987Z,9.40
2023-08-15T05:30:42.967Z,8.50
2023-08-15T05:33:10.703Z,8.40
2023-08-15T05:35:40.141Z,9.30
2023-08-15T05:38:07.751Z,9.10
2023-08-15T05:40:35.378Z,8.90
2023-08-15T05:43:03.097Z,8.90
2023-08-15T05:45:30.849Z,9.30
2023-08-15T05:47:59.408Z,7.80
2023-08-15T05:50:27.302Z,8.30
2023-08-15T05:52:55.319Z,7.80
2023-08-15T05:55:23.244Z,8.60
2023-08-15T05:57:50.954Z,8.70
2023-08-15T06:00:20.008Z,9.00
2023-08-15T06:02:47.694Z,8.30
2023-08-15T06:05:15.471Z,8.20
2023-08-15T06:07:43.242Z,8.00
2023-08-15T06:10:10.928Z,8.70
2023-08-15T06:12:38.641Z,8.80
2023-08-15T06:15:06.767Z,8.00
2023-08-15T06:17:34.820Z,8.80
2023-08-15T06:20:02.461Z,8.70
2023-08-15T06:22:30.067Z,8.80
2023-08-15T06:24:57.667Z,8.10
2023-08-15T06:27:25.360Z,9.10
2023-08-15T06:29:53.035Z,7.90
2023-08-15T06:32:27.607Z,7.90
2023-08-15T06:34:55.231Z,7.80
2023-08-15T06:37:23.747Z,7.60
2023-08-15T06:39:51.618Z,8.00
2023-08-15T06:42:19.351Z,7.40
2023-08-15T06:44:46.959Z,7.80
2023-08-15T06:47:14.575Z,7.70
2023-08-15T06:49:42.379Z,8.00
2023-08-15T06:52:10.151Z,7.30
2023-08-15T06:54:38.020Z,7.50
2023-08-15T06:57:08.670Z,6.90
2023-08-15T06:59:36.937Z,7.60
2023-08-15T07:02:07.407Z,6.90
2023-08-15T07:04:37.996Z,6.70
2023-08-15T07:09:34.179Z,7.10
2023-08-15T07:12:02.092Z,7.40
2023-08-15T07:14:29.700Z,6.50
2023-08-15T07:16:57.753Z,7.10
2023-08-15T07:19:25.455Z,7.20
2023-08-15T07:21:53.273Z,7.30
2023-08-15T07:24:20.937Z,7.00
2023-08-15T07:26:48.870Z,6.90
2023-08-15T07:29:16.511Z,7.60
2023-08-15T07:31:44.678Z,7.70
2023-08-15T07:34:12.364Z,6.80
2023-08-15T07:36:40.226Z,7.00
2023-08-15T07:39:07.992Z,7.50
2023-08-15T07:41:35.755Z,7.80
2023-08-15T07:44:03.543Z,6.80
2023-08-15T07:46:31.175Z,7.40
2023-08-15T07:49:00.901Z,6.60
2023-08-15T07:51:29.156Z,6.90
2023-08-15T07:53:57.254Z,6.80
2023-08-15T07:56:24.870Z,7.60
2023-08-15T07:58:52.499Z,7.30
2023-08-15T08:01:20.111Z,6.40
2023-08-15T08:03:48.742Z,7.10
2023-08-15T08:06:31.851Z,7.60
2023-08-15T08:09:06.536Z,6.90
2023-08-15T08:11:34.201Z,7.10
2023-08-15T08:14:01.835Z,7.50
2023-08-15T08:16:30.084Z,6.40
2023-08-15T08:18:57.732Z,7.40
2023-08-15T08:21:25.402Z,6.20
2023-08-15T08:23:53.241Z,6.40
2023-08-15T08:26:20.852Z,6.00
2023-08-15T08:28:48.530Z,7.00
2023-08-15T08:31:16.213Z,6.60
2023-08-15T08:33:43.892Z,7.00
2023-08-15T08:36:11.514Z,6.10
2023-08-15T08:38:39.089Z,6.60
2023-08-15T08:41:06.733Z,6.90
2023-08-15T08:43:35.127Z,6.40
2023-08-15T08:46:02.793Z,6.00
2023-08-15T08:48:30.444Z,6.40
2023-08-15T08:50:58.040Z,6.10
2023-08-15T08:53:26.041Z,6.10
2023-08-15T08:55:53.680Z,6.30
2023-08-15T08:58:21.430Z,6.20
2023-08-15T09:00:49.132Z,6.40
2023-08-15T09:03:16.960Z,6.70
2023-08-15T09:05:45.621Z,6.30
2023-08-15T09:08:13.342Z,6.40
2023-08-15T09:10:41.061Z,6.30
2023-08-15T09:13:09.030Z,6.20
2023-08-15T09:15:36.711Z,5.80
2023-08-15T09:18:08.133Z,5.90
2023-08-15T09:20:45.779Z,5.50
2023-08-15T09:23:13.536Z,6.10
2023-08-15T09:25:41.319Z,5.20
2023-08-15T09:28:09.173Z,6.70
2023-08-15T09:30:37.722Z,5.40
2023-08-15T09:33:06.438Z,5.10
2023-08-15T09:35:35.565Z,5.80
2023-08-15T09:38:07.586Z,5.10
2023-08-15T09:40:35.777Z,5.70
2023-08-15T09:43:03.936Z,5.30
2023-08-15T09:45:31.622Z,5.10
2023-08-15T09:47:59.324Z,4.70
2023-08-15T09:50:27.265Z,4.80
2023-08-15T09:52:55.252Z,5.30
2023-08-15T09:55:23.015Z,4.70
2023-08-15T09:57:52.464Z,5.40
2023-08-15T10:00:20.157Z,5.00
2023-08-15T10:02:50.141Z,5.10
2023-08-15T10:05:22.244Z,5.20
2023-08-15T10:07:50.571Z,5.00
2023-08-15T10:10:18.263Z,4.60
2023-08-15T10:12:46.997Z,4.60
2023-08-15T10:15:14.686Z,4.70
2023-08-15T10:17:42.540Z,5.20
2023-08-15T10:20:13.637Z,4.70
2023-08-15T10:22:41.570Z,5.20
2023-08-15T10:25:20.187Z,4.60
2023-08-15T10:27:52.922Z,4.50
2023-08-15T10:30:47.619Z,4.70
2023-08-15T10:33:20.869Z,4.80
2023-08-15T10:35:56.379Z,4.70
2023-08-15T10:38:45.000Z,4.20
2023-08-15T10:41:16.930Z,4.60
2023-08-15T10:43:52.320Z,4.90
2023-08-15T10:46:29.029Z,4.20
2023-08-15T10:49:10.485Z,4.20
2023-08-15T10:51:39.342Z,3.90
2023-08-15T10:54:11.218Z,4.40
2023-08-15T10:56:40.089Z,4.30
2023-08-15T10:59:10.005Z,4.30
2023-08-15T11:01:38.650Z,4.60
2023-08-15T11:04:09.828Z,4.40
2023-08-15T11:06:49.922Z,4.10
2023-08-15T11:09:17.905Z,4.30
2023-08-15T11:11:46.679Z,3.90
2023-08-15T11:14:16.667Z,4.60
2023-08-15T11:16:45.470Z,3.70
2023-08-15T11:19:15.892Z,4.30
2023-08-15T11:21:43.754Z,4.20
2023-08-15T11:24:11.831Z,4.20
2023-08-15T11:26:39.737Z,4.30
2023-08-15T11:29:07.499Z,4.30
2023-08-15T11:31:36.830Z,3.90
2023-08-15T11:34:04.817Z,3.90
2023-08-15T11:36:32.698Z,4.10
2023-08-15T11:39:04.480Z,3.60
2023-08-15T11:41:34.895Z,4.10
2023-08-15T11:44:04.936Z,4.30
2023-08-15T11:46:51.436Z,4.00
2023-08-15T11:49:25.113Z,3.60
2023-08-15T11:51:53.082Z,3.70
2023-08-15T11:54:27.173Z,4.00
2023-08-15T11:56:55.961Z,4.40
2023-08-15T11:59:26.776Z,3.60
2023-08-15T12:01:54.386Z,3.60
2023-08-15T12:04:22.001Z,4.30
2023-08-15T12:06:51.562Z,3.60
2023-08-15T12:09:19.139Z,3.70
2023-08-15T12:11:46.750Z,3.20
2023-08-15T12:14:21.087Z,3.70
2023-08-15T12:16:49.001Z,3.50
2023-08-15T12:19:19.820Z,3.70
2023-08-15T12:21:51.545Z,4.00
2023-08-15T12:24:19.498Z,3.50
2023-08-15T12:26:47.183Z,3.30
2023-08-15T12:29:17.912Z,3.40
2023-08-15T12:31:46.300Z,3.80
2023-08-15T12:34:14.082Z,3.10
2023-08-15T12:36:41.720Z,4.00
2023-08-15T12:39:10.178Z,3.70
2023-08-15T12:41:38.019Z,3.50
2023-08-15T12:44:05.945Z,3.80
2023-08-15T12:46:33.591Z,3.40
2023-08-15T12:49:03.690Z,3.60
2023-08-15T12:54:00.405Z,4.20
2023-08-15T12:56:28.177Z,3.50
2023-08-15T12:58:55.817Z,4.10
2023-08-15T13:01:24.206Z,3.60
2023-08-15T13:03:55.137Z,3.50
2023-08-15T13:06:23.320Z,3.40
2023-08-15T13:08:51.292Z,3.90
2023-08-15T13:11:19.124Z,3.80
2023-08-15T13:13:46.816Z,3.60
2023-08-15T13:16:14.526Z,3.70
2023-08-15T13:18:42.198Z,4.00
2023-08-15T13:21:10.016Z,3.60
2023-08-15T13:23:37.760Z,3.70
2023-08-15T13:26:05.439Z,3.80
2023-08-15T13:28:33.119Z,3.20
2023-08-15T13:31:01.083Z,3.40
2023-08-15T13:33:28.751Z,3.50
2023-08-15T13:35:56.485Z,3.40
2023-08-15T13:38:24.342Z,3.20
2023-08-15T13:40:52.022Z,3.20
2023-08-15T13:43:19.825Z,4.50
2023-08-15T13:45:47.527Z,3.70
2023-08-15T13:48:17.360Z,3.40
2023-08-15T13:50:45.857Z,3.50
2023-08-15T13:53:13.551Z,3.30
2023-08-15T13:55:41.281Z,3.40
2023-08-15T13:58:08.886Z,3.10
2023-08-15T14:00:37.469Z,3.10
2023-08-15T14:03:05.487Z,3.10
2023-08-15T14:05:34.307Z,3.10
2023-08-15T14:08:02.776Z,2.70
2023-08-15T14:10:31.264Z,3.00
2023-08-15T14:12:58.984Z,3.40
2023-08-15T14:15:26.665Z,3.20
2023-08-15T14:17:54.329Z,3.40
2023-08-15T14:20:22.128Z,3.20
2023-08-15T14:22:49.831Z,2.90
2023-08-15T14:25:17.619Z,3.30
2023-08-15T14:27:45.313Z,3.00
2023-08-15T14:30:13.525Z,2.90
2023-08-15T14:32:41.357Z,3.30
2023-08-15T14:35:09.377Z,2.90
2023-08-15T14:37:37.343Z,3.00
2023-08-15T14:40:05.601Z,2.80
2023-08-15T14:42:33.220Z,3.10
2023-08-15T14:45:01.256Z,3.30
2023-08-15T14:47:32.271Z,2.90
2023-08-15T14:50:00.175Z,2.90
2023-08-15T14:52:28.563Z,2.80
2023-08-15T14:54:56.267Z,3.20
2023-08-15T14:57:24.001Z,2.80
2023-08-15T14:59:52.039Z,2.80
2023-08-15T15:02:21.248Z,2.90
2023-08-15T15:04:50.004Z,2.70
2023-08-15T15:07:18.539Z,3.20
2023-08-15T15:09:46.470Z,3.00
2023-08-15T15:12:14.106Z,3.30
2023-08-15T15:14:41.827Z,3.30
2023-08-15T15:17:09.477Z,3.50
2023-08-15T15:19:37.248Z,3.10
2023-08-15T15:22:05.003Z,3.30
2023-08-15T15:24:32.655Z,3.50
2023-08-15T15:27:00.426Z,3.50
2023-08-15T15:29:28.046Z,3.30
2023-08-15T15:31:56.248Z,3.20
2023-08-15T15:34:23.952Z,3.40
2023-08-15T15:36:51.686Z,3.50
2023-08-15T15:39:19.710Z,3.60
2023-08-15T15:41:47.399Z,3.70
2023-08-15T15:44:15.326Z,3.50
2023-08-15T15:46:53.892Z,3.60
2023-08-15T15:49:24.429Z,3.30
2023-08-15T15:51:52.134Z,4.10
2023-08-15T15:54:19.808Z,3.40
2023-08-15T15:56:47.611Z,3.30
2023-08-15T15:59:15.403Z,3.70
2023-08-15T16:01:43.184Z,3.50
2023-08-15T16:04:10.904Z,3.80
2023-08-15T16:06:38.789Z,3.60
2023-08-15T16:09:06.660Z,3.60
2023-08-15T16:11:34.397Z,3.70
2023-08-15T16:14:02.182Z,4.10
2023-08-15T16:16:31.227Z,4.30
2023-08-15T16:18:58.916Z,3.90
2023-08-15T16:21:27.180Z,3.40
2023-08-15T16:23:54.854Z,3.90
2023-08-15T16:26:23.040Z,3.70
2023-08-15T16:28:50.903Z,3.60
2023-08-15T16:31:18.580Z,3.70
2023-08-15T16:33:46.376Z,3.70
2023-08-15T16:36:13.977Z,4.00
2023-08-15T16:38:41.707Z,4.00
2023-08-15T16:41:09.723Z,4.00
2023-08-15T16:43:37.531Z,3.90
2023-08-15T16:46:05.206Z,4.30
2023-08-15T16:48:34.733Z,4.00
2023-08-15T16:51:03.414Z,3.90
2023-08-15T16:53:31.200Z,3.90
2023-08-15T16:55:59.176Z,3.80
2023-08-15T16:58:27.052Z,4.30
2023-08-15T17:00:54.808Z,4.40
2023-08-15T17:03:23.093Z,3.70
2023-08-15T17:05:50.946Z,4.40
2023-08-15T17:08:18.767Z,3.80
2023-08-15T17:10:46.528Z,4.00
2023-08-15T17:13:15.332Z,3.80
2023-08-15T17:15:43.198Z,4.60
2023-08-15T17:18:10.870Z,4.40
2023-08-15T17:20:38.590Z,4.30
2023-08-15T17:23:06.225Z,4.30
2023-08-15T17:25:33.929Z,4.40
2023-08-15T17:28:01.692Z,4.60
2023-08-15T17:30:29.330Z,5.20
2023-08-15T17:32:56.961Z,4.70
2023-08-15T17:35:24.575Z,4.20
2023-08-15T17:37:52.360Z,4.60
2023-08-15T17:40:20.092Z,5.40
2023-08-15T17:42:47.696Z,5.50
2023-08-15T17:45:15.403Z,5.30
2023-08-15T17:47:43.343Z,5.10
2023-08-15T17:50:11.206Z,5.10
2023-08-15T17:52:39.041Z,4.90
2023-08-15T17:55:07.433Z,4.60
2023-08-15T17:57:35.098Z,5.20
2023-08-15T18:00:02.764Z,5.30
2023-08-15T18:02:30.501Z,5.60
2023-08-15T18:04:58.082Z,5.30
2023-08-15T18:07:25.865Z,5.10
2023-08-15T18:09:53.570Z,5.90
2023-08-15T18:12:21.445Z,5.90
2023-08-15T18:14:49.419Z,6.00
2023-08-15T18:17:17.058Z,7.00
2023-08-15T18:19:45.366Z,6.40
2023-08-15T18:22:14.850Z,6.80
2023-08-15T18:24:43.410Z,6.30
2023-08-15T18:27:11.001Z,7.00
2023-08-15T18:29:38.664Z,8.10
2023-08-15T18:32:06.549Z,7.10
2023-08-15T18:34:34.325Z,6.10
2023-08-15T18:37:01.948Z,7.00
2023-08-15T18:39:29.623Z,6.50
2023-08-15T18:41:57.382Z,6.10
2023-08-15T18:44:24.991Z,6.10
2023-08-15T18:46:52.869Z,6.00
2023-08-15T18:49:20.546Z,6.40
2023-08-15T18:51:48.309Z,6.20
2023-08-15T18:54:15.993Z,5.80
2023-08-15T18:56:43.755Z,6.50
2023-08-15T18:59:11.997Z,6.60
2023-08-15T19:01:39.631Z,6.90
2023-08-15T19:04:07.319Z,7.10
2023-08-15T19:06:35.053Z,6.50
2023-08-15T19:09:02.702Z,6.60
2023-08-15T19:11:30.497Z,6.10
2023-08-15T19:13:58.167Z,7.00
2023-08-15T19:16:25.920Z,6.50
2023-08-15T19:18:53.574Z,6.30
2023-08-15T19:21:21.287Z,6.50
2023-08-15T19:23:49.271Z,7.00
2023-08-15T19:26:16.814Z,7.00
2023-08-15T19:28:44.400Z,6.40
2023-08-15T19:31:15.062Z,7.50
2023-08-15T19:33:42.768Z,7.20
2023-08-15T19:36:10.375Z,7.70
2023-08-15T19:38:37.999Z,7.80
2023-08-15T19:41:06.011Z,8.20
2023-08-15T19:43:33.865Z,7.90
2023-08-15T19:46:01.635Z,8.20
2023-08-15T19:48:29.372Z,8.10
2023-08-15T19:50:56.976Z,8.80
2023-08-15T19:53:24.880Z,8.30
2023-08-15T19:55:53.171Z,8.40
2023-08-15T19:58:20.853Z,8.80
2023-08-15T20:00:48.535Z,9.20
2023-08-15T20:03:16.787Z,8.20
2023-08-15T20:05:44.454Z,8.20
2023-08-15T20:08:12.251Z,7.70
2023-08-15T20:10:39.862Z,7.70
2023-08-15T20:13:07.444Z,7.40
2023-08-15T20:15:39.086Z,7.00
2023-08-15T20:18:07.055Z,7.10
2023-08-15T20:20:34.648Z,7.20
2023-08-15T20:23:02.215Z,7.80
2023-08-15T20:25:30.087Z,7.00
2023-08-15T20:27:58.271Z,7.40
2023-08-15T20:30:26.080Z,7.40
2023-08-15T20:32:53.721Z,7.10
2023-08-15T20:35:21.510Z,7.30
2023-08-15T20:37:49.299Z,7.60
2023-08-15T20:40:17.310Z,7.10
2023-08-15T20:42:45.011Z,6.90
2023-08-15T20:45:12.768Z,7.20
2023-08-15T20:47:40.471Z,7.20
2023-08-15T20:50:08.369Z,7.70
2023-08-15T20:52:36.192Z,7.30
2023-08-15T20:55:03.874Z,7.70
2023-08-15T20:57:34.560Z,7.60
2023-08-15T21:00:02.310Z,7.30
2023-08-15T21:02:30.073Z,7.10
2023-08-15T21:04:57.737Z,6.90
2023-08-15T21:07:25.732Z,7.70
2023-08-15T21:09:53.485Z,7.40
2023-08-15T21:12:21.480Z,7.30
2023-08-15T21:14:49.294Z,8.00
2023-08-15T21:17:16.975Z,7.40
2023-08-15T21:19:44.559Z,7.40
2023-08-15T21:22:12.280Z,7.70
2023-08-15T21:24:40.581Z,7.10
2023-08-15T21:27:08.148Z,7.40
2023-08-15T21:29:35.826Z,7.40
2023-08-15T21:32:04.469Z,7.20
2023-08-15T21:34:32.511Z,7.40
2023-08-15T21:37:00.068Z,8.20
2023-08-15T21:39:27.604Z,8.00
2023-08-15T21:41:55.191Z,7.30
2023-08-15T21:44:23.300Z,7.60
2023-08-15T21:46:50.865Z,7.60
2023-08-15T21:49:18.486Z,7.20
2023-08-15T21:51:46.050Z,7.20
2023-08-15T21:54:13.686Z,7.80
2023-08-15T21:56:41.348Z,7.30
2023-08-15T21:59:08.907Z,7.70
2023-08-15T22:01:36.574Z,7.70
2023-08-15T22:04:04.594Z,7.50
2023-08-15T22:06:32.161Z,7.90
2023-08-15T22:08:59.751Z,8.70
2023-08-15T22:11:27.354Z,8.70
2023-08-15T22:13:54.957Z,7.60
2023-08-15T22:16:22.641Z,8.80
2023-08-15T22:18:50.284Z,7.70
2023-08-15T22:21:18.053Z,8.20
2023-08-15T22:23:46.324Z,8.00
2023-08-15T22:26:13.961Z,8.10
2023-08-15T22:28:41.610Z,8.10
2023-08-15T22:31:10.145Z,8.30
2023-08-15T22:33:37.726Z,7.60
2023-08-15T22:36:05.588Z,8.40
2023-08-15T22:38:33.247Z,8.30
2023-08-15T22:41:00.813Z,8.70
2023-08-15T22:43:28.370Z,8.40
2023-08-15T22:45:55.978Z,7.90
2023-08-15T22:48:23.706Z,8.10
2023-08-15T22:50:51.393Z,9.00
2023-08-15T22:53:19.004Z,8.70
2023-08-15T22:55:46.587Z,7.50
2023-08-15T22:58:15.457Z,8.70
2023-08-15T23:00:43.459Z,8.30
2023-08-15T23:03:11.076Z,8.00
2023-08-15T23:05:38.640Z,7.70
2023-08-15T23:08:06.415Z,8.40
2023-08-15T23:10:34.065Z,8.00
2023-08-15T23:13:01.644Z,8.10
2023-08-15T23:15:29.330Z,8.10
2023-08-15T23:17:57.094Z,7.70
2023-08-15T23:20:24.711Z,8.30
2023-08-15T23:22:52.286Z,8.00
2023-08-15T23:25:19.875Z,7.50
2023-08-15T23:27:48.000Z,8.00
2023-08-15T23:30:15.722Z,8.30
2023-08-15T23:32:43.329Z,8.40
2023-08-15T23:35:14.572Z,8.10
2023-08-15T23:37:43.809Z,9.10
2023-08-15T23:40:11.983Z,7.90
2023-08-15T23:42:39.630Z,7.70
2023-08-15T23:45:07.900Z,8.40
2023-08-15T23:47:35.567Z,7.80
2023-08-15T23:50:04.129Z,8.60
2023-08-15T23:52:31.753Z,9.30
2023-08-15T23:54:59.627Z,7.90
2023-08-15T23:57:27.250Z,8.60
2023-08-15T23:59:54.835Z,7.60
